createdAt,value
2022-08-28T00:07:12.154Z,8.20
2022-08-28T00:12:12.238Z,8.40
2022-08-28T00:22:12.159Z,8.40
2022-08-28T00:32:12.170Z,8.90
2022-08-28T00:37:13.481Z,8.90
2022-08-28T00:42:12.165Z,7.10
2022-08-28T00:47:12.172Z,7.10
2022-08-28T00:52:12.635Z,7.10
2022-08-28T00:57:12.179Z,6.50
2022-08-28T01:02:12.176Z,6.50
2022-08-28T01:07:12.179Z,6.50
2022-08-28T01:12:12.197Z,8.90
2022-08-28T01:17:12.182Z,8.90
2022-08-28T01:27:12.205Z,6.60
2022-08-28T01:42:12.191Z,8.10
2022-08-28T01:52:12.196Z,8.10
2022-08-28T01:57:12.201Z,7.60
2022-08-28T02:02:12.194Z,7.60
2022-08-28T02:07:12.200Z,7.60
2022-08-28T02:12:12.213Z,6.90
2022-08-28T02:17:12.199Z,6.90
2022-08-28T02:27:12.215Z,5.50
2022-08-28T02:32:12.216Z,5.50
2022-08-28T02:37:12.211Z,5.50
2022-08-28T02:42:12.233Z,5.90
2022-08-28T02:52:12.229Z,5.90
2022-08-28T03:02:12.256Z,6.10
2022-08-28T03:07:12.213Z,6.10
2022-08-28T03:12:12.233Z,8.30
2022-08-28T03:17:12.241Z,8.30
2022-08-28T03:22:12.236Z,8.30
2022-08-28T03:27:12.238Z,6.60
2022-08-28T03:32:12.233Z,6.60
2022-08-28T03:42:12.232Z,6.70
2022-08-28T03:47:12.238Z,6.70
2022-08-28T04:02:12.239Z,5.60
2022-08-28T04:07:12.257Z,5.60
2022-08-28T04:12:12.267Z,5.40
2022-08-28T04:17:12.327Z,5.40
2022-08-28T04:32:12.313Z,7.40
2022-08-28T04:37:12.255Z,7.40
2022-08-28T04:42:12.260Z,8.40
2022-08-28T04:47:12.265Z,8.40
2022-08-28T04:52:12.265Z,8.40
2022-08-28T04:57:12.293Z,5.90
2022-08-28T05:02:12.358Z,5.90
2022-08-28T05:07:12.264Z,5.90
2022-08-28T05:12:12.290Z,5.70
2022-08-28T05:17:12.297Z,5.70
2022-08-28T05:22:12.307Z,5.70
2022-08-28T05:27:12.283Z,7.40
2022-08-28T05:37:14.534Z,7.40
2022-08-28T05:47:12.289Z,8.20
2022-08-28T05:52:12.312Z,8.20
2022-08-28T05:57:12.290Z,5.70
2022-08-28T06:02:12.597Z,5.70
2022-08-28T06:12:12.308Z,7.50
2022-08-28T06:22:12.307Z,7.50
2022-08-28T06:27:12.316Z,6.00
2022-08-28T06:32:12.397Z,6.00
2022-08-28T06:37:12.322Z,6.00
2022-08-28T06:42:12.314Z,7.40
2022-08-28T06:47:12.318Z,7.40
2022-08-28T06:52:12.308Z,7.40
2022-08-28T06:57:12.304Z,4.70
2022-08-28T07:02:12.437Z,4.70
2022-08-28T07:07:18.723Z,4.70
2022-08-28T07:12:12.314Z,7.90
2022-08-28T07:17:12.315Z,7.90
2022-08-28T07:27:15.757Z,8.00
2022-08-28T07:32:12.327Z,8.00
2022-08-28T07:42:12.340Z,7.10
2022-08-28T07:47:12.338Z,7.10
2022-08-28T07:52:12.338Z,7.10
2022-08-28T07:57:12.339Z,5.20
2022-08-28T08:02:12.333Z,5.20
2022-08-28T08:12:12.341Z,3.00
2022-08-28T08:17:12.344Z,3.00
2022-08-28T08:22:12.351Z,3.00
2022-08-28T08:27:12.337Z,4.20
2022-08-28T08:32:12.344Z,4.20
2022-08-28T08:37:12.352Z,4.20
2022-08-28T08:42:12.360Z,4.80
2022-08-28T08:47:14.937Z,4.80
2022-08-28T08:52:12.360Z,4.80
2022-08-28T08:57:12.350Z,4.30
2022-08-28T09:02:12.357Z,4.30
2022-08-28T09:07:12.387Z,4.30
2022-08-28T09:12:12.371Z,2.50
2022-08-28T09:17:12.365Z,2.50
2022-08-28T09:22:12.356Z,2.50
2022-08-28T09:27:14.319Z,4.40
2022-08-28T09:32:12.369Z,4.40
2022-08-28T09:37:14.047Z,2.60
2022-08-28T09:42:12.375Z,2.60
2022-08-28T09:52:12.383Z,2.40
2022-08-28T09:57:12.384Z,2.40
2022-08-28T10:02:12.462Z,2.40
2022-08-28T10:07:12.398Z,6.90
2022-08-28T10:12:12.400Z,6.90
2022-08-28T10:17:12.391Z,6.90
2022-08-28T10:22:12.384Z,3.70
2022-08-28T10:27:12.398Z,3.70
2022-08-28T10:32:12.396Z,3.70
2022-08-28T10:37:12.388Z,3.90
2022-08-28T10:42:12.399Z,3.90
2022-08-28T10:47:13.558Z,3.90
2022-08-28T10:52:12.401Z,4.20
2022-08-28T10:57:12.407Z,4.20
2022-08-28T11:02:12.502Z,4.20
2022-08-28T11:12:12.448Z,6.00
2022-08-28T11:17:14.249Z,6.00
2022-08-28T11:22:12.433Z,3.30
2022-08-28T11:27:12.420Z,3.30
2022-08-28T11:32:12.427Z,3.30
2022-08-28T11:37:12.411Z,3.70
2022-08-28T11:42:12.424Z,3.70
2022-08-28T11:47:12.426Z,3.70
2022-08-28T11:52:12.419Z,3.70
2022-08-28T11:57:12.419Z,3.70
2022-08-28T12:02:12.473Z,3.70
2022-08-28T12:07:12.436Z,3.20
2022-08-28T12:17:12.435Z,3.20
2022-08-28T12:22:12.430Z,3.40
2022-08-28T12:27:12.446Z,3.40
2022-08-28T12:32:12.453Z,3.40
2022-08-28T12:37:12.438Z,2.40
2022-08-28T12:47:12.460Z,2.40
2022-08-28T12:52:12.461Z,5.20
2022-08-28T12:57:12.448Z,5.20
2022-08-28T13:02:12.623Z,5.20
2022-08-28T13:07:12.458Z,4.10
2022-08-28T13:12:12.449Z,4.10
2022-08-28T13:17:12.463Z,4.10
2022-08-28T13:22:12.469Z,5.40
2022-08-28T13:27:14.978Z,5.40
2022-08-28T13:32:12.484Z,5.40
2022-08-28T13:42:12.469Z,3.40
2022-08-28T13:47:12.480Z,3.40
2022-08-28T13:52:12.473Z,4.00
2022-08-28T13:57:12.479Z,4.00
2022-08-28T14:02:12.520Z,4.00
2022-08-28T14:07:12.476Z,3.70
2022-08-28T14:12:12.494Z,3.70
2022-08-28T14:17:12.691Z,3.70
2022-08-28T14:22:12.507Z,5.20
2022-08-28T14:27:12.487Z,5.20
2022-08-28T14:32:12.537Z,5.20
2022-08-28T14:37:12.503Z,3.40
2022-08-28T14:42:13.260Z,3.40
2022-08-28T14:47:12.499Z,3.40
2022-08-28T14:52:12.497Z,3.90
2022-08-28T14:57:12.511Z,3.90
2022-08-28T15:02:12.500Z,3.90
2022-08-28T15:07:12.510Z,2.00
2022-08-28T15:12:12.531Z,2.00
2022-08-28T15:17:12.535Z,2.00
2022-08-28T15:22:12.645Z,3.30
2022-08-28T15:27:12.553Z,3.30
2022-08-28T15:32:12.540Z,3.30
2022-08-28T15:37:13.477Z,3.90
2022-08-28T15:42:12.527Z,3.90
2022-08-28T15:47:12.575Z,3.90
2022-08-28T15:52:12.552Z,3.90
2022-08-28T15:57:12.533Z,3.90
2022-08-28T16:02:12.685Z,3.90
2022-08-28T16:07:12.604Z,3.80
2022-08-28T16:12:12.530Z,3.80
2022-08-28T16:17:12.553Z,3.80
2022-08-28T16:22:12.537Z,4.40
2022-08-28T16:27:15.486Z,4.40
2022-08-28T16:32:14.024Z,4.40
2022-08-28T16:37:12.551Z,2.80
2022-08-28T16:42:12.545Z,2.80
2022-08-28T16:47:12.620Z,2.80
2022-08-28T16:52:12.550Z,4.50
2022-08-28T17:07:12.561Z,4.70
2022-08-28T17:12:12.564Z,4.70
2022-08-28T17:17:12.560Z,4.70
2022-08-28T17:22:12.556Z,4.00
2022-08-28T17:27:12.569Z,4.00
2022-08-28T17:37:12.583Z,3.40
2022-08-28T17:42:12.573Z,3.40
2022-08-28T17:47:12.583Z,3.40
2022-08-28T17:52:12.580Z,3.00
2022-08-28T17:57:12.586Z,3.00
2022-08-28T18:02:12.648Z,3.00
2022-08-28T18:07:12.599Z,3.70
2022-08-28T18:17:12.599Z,3.70
2022-08-28T18:22:12.587Z,3.30
2022-08-28T18:32:12.595Z,3.30
2022-08-28T18:37:12.600Z,3.20
2022-08-28T18:42:12.603Z,3.20
2022-08-28T18:47:12.605Z,3.20
2022-08-28T18:52:12.610Z,3.40
2022-08-28T19:07:12.610Z,3.10
2022-08-28T19:12:12.607Z,3.10
2022-08-28T19:17:12.612Z,3.10
2022-08-28T19:22:12.630Z,3.70
2022-08-28T19:32:12.622Z,3.70
2022-08-28T19:37:12.619Z,3.90
2022-08-28T19:42:12.635Z,3.90
2022-08-28T19:47:12.637Z,3.90
2022-08-28T19:52:12.632Z,3.50
2022-08-28T19:57:12.659Z,3.50
2022-08-28T20:02:12.672Z,3.50
2022-08-28T20:07:12.635Z,4.10
2022-08-28T20:22:12.642Z,3.70
2022-08-28T20:27:12.634Z,3.70
2022-08-28T20:32:12.648Z,3.70
2022-08-28T20:37:12.893Z,5.60
2022-08-28T20:42:12.654Z,5.60
2022-08-28T20:47:12.642Z,5.60
2022-08-28T20:52:12.644Z,3.80
2022-08-28T20:57:12.657Z,3.80
2022-08-28T21:02:12.657Z,3.80
2022-08-28T21:07:12.675Z,4.60
2022-08-28T21:12:12.673Z,4.60
2022-08-28T21:27:12.676Z,3.40
2022-08-28T21:32:12.675Z,3.40
2022-08-28T21:37:12.675Z,3.60
2022-08-28T21:42:12.667Z,3.60
2022-08-28T21:47:12.691Z,3.60
2022-08-28T21:57:12.677Z,3.70
2022-08-28T22:02:12.743Z,3.70
2022-08-28T22:07:12.682Z,3.70
2022-08-28T22:12:12.684Z,3.70
2022-08-28T22:17:12.764Z,3.70
2022-08-28T22:22:12.696Z,6.00
2022-08-28T22:27:12.701Z,6.00
2022-08-28T22:32:12.731Z,6.00
2022-08-28T22:37:12.695Z,4.80
2022-08-28T22:42:13.149Z,4.80
2022-08-28T22:47:12.698Z,4.80
2022-08-28T22:52:12.716Z,4.90
2022-08-28T22:57:12.695Z,4.90
2022-08-28T23:02:12.719Z,4.90
2022-08-28T23:07:12.727Z,4.50
2022-08-28T23:17:12.704Z,4.50
2022-08-28T23:22:12.729Z,4.90
2022-08-28T23:27:34.722Z,4.90
2022-08-28T23:32:12.767Z,4.90
2022-08-28T23:42:12.732Z,5.10
2022-08-28T23:47:12.728Z,5.10
2022-08-28T23:52:13.784Z,4.60
2022-08-28T23:57:12.731Z,4.60
